createdAt,value
2023-02-15T00:02:11.819Z,2.46
2023-02-15T00:07:10.584Z,2.53
2023-02-15T00:12:10.985Z,2.47
2023-02-15T00:17:09.947Z,2.14
2023-02-15T00:22:09.530Z,2.28
2023-02-15T00:27:10.317Z,2.44
2023-02-15T00:32:09.501Z,2.56
2023-02-15T00:37:08.537Z,2.44
2023-02-15T00:42:07.344Z,2.59
2023-02-15T00:47:06.404Z,1.94
2023-02-15T00:52:05.679Z,2.07
2023-02-15T00:57:04.401Z,1.83
2023-02-15T01:02:03.335Z,2.24
2023-02-15T01:07:03.224Z,2.12
2023-02-15T01:12:05.418Z,1.97
2023-02-15T01:17:04.417Z,1.99
2023-02-15T01:22:07.136Z,1.60
2023-02-15T01:27:07.717Z,1.61
2023-02-15T01:32:06.861Z,1.58
2023-02-15T01:37:05.966Z,1.89
2023-02-15T01:42:04.800Z,1.77
2023-02-15T01:47:03.987Z,1.90
2023-02-15T01:52:03.845Z,1.64
2023-02-15T01:57:10.318Z,1.67
2023-02-15T02:02:12.899Z,1.55
2023-02-15T02:07:15.379Z,1.84
2023-02-15T02:12:15.257Z,1.91
2023-02-15T02:17:36.572Z,1.90
2023-02-15T02:23:04.442Z,1.84
2023-02-15T02:28:21.714Z,1.75
2023-02-15T02:33:49.825Z,1.80
2023-02-15T02:38:48.605Z,1.75
2023-02-15T02:44:03.922Z,1.54
2023-02-15T02:49:03.090Z,1.60
2023-02-15T02:54:06.828Z,1.63
2023-02-15T02:59:15.083Z,1.98
2023-02-15T03:04:26.091Z,1.69
2023-02-15T03:09:42.647Z,1.56
2023-02-15T03:14:49.054Z,1.98
2023-02-15T03:19:53.430Z,1.69
2023-02-15T03:25:04.008Z,1.66
2023-02-15T03:30:04.825Z,1.78
2023-02-15T03:35:04.323Z,1.75
2023-02-15T03:40:36.372Z,1.73
2023-02-15T03:45:39.324Z,1.50
2023-02-15T03:50:57.841Z,1.47
2023-02-15T03:55:56.803Z,1.20
2023-02-15T04:01:19.036Z,1.43
2023-02-15T04:06:17.892Z,1.66
2023-02-15T04:11:17.019Z,1.51
2023-02-15T04:16:15.922Z,1.38
2023-02-15T04:21:33.400Z,1.03
2023-02-15T04:26:32.327Z,1.07
2023-02-15T04:31:31.436Z,1.10
2023-02-15T04:36:30.262Z,1.27
2023-02-15T04:41:29.430Z,1.07
2023-02-15T04:46:29.280Z,1.13
2023-02-15T04:51:28.426Z,0.98
2023-02-15T04:56:27.563Z,0.89
2023-02-15T05:01:26.578Z,1.30
2023-02-15T05:06:25.388Z,0.80
2023-02-15T05:11:24.317Z,1.06
2023-02-15T05:16:23.242Z,1.10
2023-02-15T05:21:22.150Z,1.14
2023-02-15T05:26:41.987Z,1.34
2023-02-15T05:31:41.149Z,9.34
2023-02-15T05:36:40.283Z,9.55
2023-02-15T05:41:39.265Z,10.41
2023-02-15T05:46:38.070Z,10.26
2023-02-15T05:51:37.009Z,5.38
2023-02-15T05:56:36.608Z,3.70
2023-02-15T06:01:35.364Z,2.55
2023-02-15T06:06:35.739Z,2.15
2023-02-15T06:11:34.577Z,2.01
2023-02-15T06:16:33.396Z,2.14
2023-02-15T06:21:32.170Z,1.91
2023-02-15T06:26:31.160Z,1.96
2023-02-15T06:31:30.332Z,1.69
2023-02-15T06:36:29.730Z,1.67
2023-02-15T06:41:28.565Z,1.50
2023-02-15T06:46:27.930Z,1.69
2023-02-15T06:51:27.140Z,1.71
2023-02-15T06:56:26.312Z,1.67
2023-02-15T07:01:25.295Z,1.80
2023-02-15T07:06:24.276Z,2.09
2023-02-15T07:11:41.635Z,1.91
2023-02-15T07:16:40.411Z,1.99
2023-02-15T07:21:39.558Z,1.73
2023-02-15T07:26:38.535Z,2.16
2023-02-15T07:31:37.445Z,2.31
2023-02-15T07:36:36.463Z,2.10
2023-02-15T07:41:35.488Z,2.10
2023-02-15T07:46:36.925Z,2.42
2023-02-15T07:51:35.818Z,2.50
2023-02-15T07:56:37.611Z,2.75
2023-02-15T08:01:38.299Z,2.92
2023-02-15T08:06:38.415Z,3.09
2023-02-15T08:11:38.714Z,3.36
2023-02-15T08:16:46.268Z,3.39
2023-02-15T08:21:49.409Z,3.47
2023-02-15T08:26:49.282Z,3.51
2023-02-15T08:31:48.945Z,3.71
2023-02-15T08:36:48.328Z,3.61
2023-02-15T08:41:49.186Z,4.09
2023-02-15T08:46:50.008Z,3.73
2023-02-15T08:51:49.964Z,4.15
2023-02-15T08:56:49.217Z,4.18
2023-02-15T09:01:50.393Z,4.15
2023-02-15T09:06:51.092Z,4.57
2023-02-15T09:11:57.457Z,4.27
2023-02-15T09:16:57.677Z,4.76
2023-02-15T09:21:56.629Z,4.92
2023-02-15T09:26:55.511Z,4.70
2023-02-15T09:31:54.843Z,4.98
2023-02-15T09:36:54.605Z,4.93
2023-02-15T09:41:56.238Z,5.30
2023-02-15T09:47:16.491Z,5.44
2023-02-15T09:52:36.860Z,5.24
2023-02-15T09:57:53.062Z,5.43
2023-02-15T10:03:21.296Z,5.49
2023-02-15T10:08:41.595Z,5.61
2023-02-15T10:13:51.675Z,5.70
2023-02-15T10:19:24.600Z,5.87
2023-02-15T10:24:47.799Z,5.83
2023-02-15T10:29:54.274Z,5.69
2023-02-15T10:35:13.965Z,5.86
2023-02-15T10:40:50.582Z,5.98
2023-02-15T10:46:04.521Z,6.19
2023-02-15T10:51:06.441Z,6.02
2023-02-15T10:56:24.154Z,5.98
2023-02-15T11:01:26.592Z,6.25
2023-02-15T11:06:27.758Z,6.37
2023-02-15T11:11:32.189Z,6.63
2023-02-15T11:16:41.951Z,6.45
2023-02-15T11:21:46.344Z,6.85
2023-02-15T11:26:51.328Z,6.46
2023-02-15T11:32:02.622Z,6.37
2023-02-15T11:37:16.981Z,6.30
2023-02-15T11:42:23.553Z,6.81
2023-02-15T11:47:22.461Z,6.32
2023-02-15T11:52:21.720Z,6.69
2023-02-15T11:57:43.678Z,6.87
2023-02-15T12:02:48.101Z,7.26
2023-02-15T12:08:12.690Z,6.83
2023-02-15T12:13:14.111Z,6.69
2023-02-15T12:18:40.430Z,6.86
2023-02-15T12:23:49.333Z,7.15
2023-02-15T12:28:53.183Z,7.51
2023-02-15T12:33:55.171Z,7.24
2023-02-15T12:39:14.182Z,7.08
2023-02-15T12:44:24.370Z,7.39
2023-02-15T12:49:23.473Z,7.14
2023-02-15T12:54:29.677Z,7.16
2023-02-15T12:59:28.527Z,7.65
2023-02-15T13:04:30.286Z,7.63
2023-02-15T13:09:35.806Z,7.42
2023-02-15T13:14:35.023Z,7.16
2023-02-15T13:19:51.208Z,7.27
2023-02-15T13:24:55.391Z,7.40
2023-02-15T13:29:59.938Z,7.24
2023-02-15T13:35:06.564Z,7.28
2023-02-15T13:40:26.458Z,7.30
2023-02-15T13:45:39.738Z,7.03
2023-02-15T13:51:10.788Z,7.06
2023-02-15T13:56:35.325Z,6.76
2023-02-15T14:01:58.763Z,6.88
2023-02-15T14:07:12.892Z,6.99
2023-02-15T14:12:36.483Z,6.75
2023-02-15T14:17:56.697Z,6.63
2023-02-15T14:23:18.670Z,6.69
2023-02-15T14:28:40.852Z,6.44
2023-02-15T14:33:57.087Z,6.31
2023-02-15T14:39:28.123Z,5.97
2023-02-15T14:44:33.396Z,6.33
2023-02-15T14:49:36.542Z,6.31
2023-02-15T14:54:35.374Z,5.98
2023-02-15T14:59:50.508Z,5.75
2023-02-15T15:05:10.876Z,5.71
2023-02-15T15:10:18.705Z,5.47
2023-02-15T15:15:30.926Z,5.41
2023-02-15T15:20:51.647Z,5.04
2023-02-15T15:25:51.271Z,5.23
2023-02-15T15:30:50.426Z,5.08
2023-02-15T15:36:24.328Z,5.13
2023-02-15T15:41:32.250Z,4.60
2023-02-15T15:46:59.583Z,4.36
2023-02-15T15:52:03.089Z,4.47
2023-02-15T15:57:04.920Z,4.35
2023-02-15T16:02:08.948Z,4.09
2023-02-15T16:07:18.362Z,3.91
2023-02-15T16:12:21.843Z,3.94
2023-02-15T16:17:26.645Z,3.49
2023-02-15T16:22:27.892Z,3.42
2023-02-15T16:27:37.164Z,3.33
2023-02-15T16:32:37.485Z,3.10
2023-02-15T16:37:37.855Z,3.12
2023-02-15T16:42:36.891Z,3.06
2023-02-15T16:47:42.875Z,3.12
2023-02-15T16:52:44.866Z,2.63
2023-02-15T16:57:44.364Z,2.80
2023-02-15T17:02:56.837Z,2.68
2023-02-15T17:08:13.843Z,2.50
2023-02-15T17:13:17.618Z,2.53
2023-02-15T17:18:19.009Z,2.51
2023-02-15T17:23:34.798Z,2.50
2023-02-15T17:28:33.768Z,2.35
2023-02-15T17:33:35.809Z,2.20
2023-02-15T17:38:34.820Z,2.25
2023-02-15T17:43:33.778Z,2.26
2023-02-15T17:48:37.540Z,2.23
2023-02-15T17:53:36.409Z,1.83
2023-02-15T17:58:35.453Z,2.30
2023-02-15T18:04:07.332Z,2.12
2023-02-15T18:09:25.247Z,2.13
2023-02-15T18:14:24.332Z,2.01
2023-02-15T18:19:26.116Z,1.98
2023-02-15T18:24:26.852Z,1.90
2023-02-15T18:29:25.781Z,1.75
2023-02-15T18:34:32.271Z,1.71
2023-02-15T18:39:44.028Z,1.68
2023-02-15T18:44:44.493Z,1.96
2023-02-15T18:49:43.629Z,2.00
2023-02-15T18:54:42.793Z,1.70
2023-02-15T18:59:41.863Z,1.75
2023-02-15T19:04:40.850Z,1.73
2023-02-15T19:09:41.184Z,1.54
2023-02-15T19:14:40.438Z,1.66
2023-02-15T19:19:39.258Z,1.63
2023-02-15T19:24:41.053Z,1.76
2023-02-15T19:29:40.109Z,1.51
2023-02-15T19:34:39.038Z,1.39
2023-02-15T19:39:40.540Z,1.27
2023-02-15T19:44:43.658Z,1.42
2023-02-15T19:49:42.714Z,1.38
2023-02-15T19:54:41.880Z,1.31
2023-02-15T19:59:41.317Z,1.39
2023-02-15T20:04:40.766Z,1.45
2023-02-15T20:09:41.078Z,1.31
2023-02-15T20:14:42.015Z,1.39
2023-02-15T20:19:41.709Z,1.32
2023-02-15T20:24:40.824Z,1.41
2023-02-15T20:29:39.757Z,1.48
2023-02-15T20:34:38.761Z,1.42
2023-02-15T20:39:37.600Z,1.49
2023-02-15T20:44:36.484Z,1.36
2023-02-15T20:49:38.172Z,1.41
2023-02-15T20:54:37.592Z,1.47
2023-02-15T20:59:36.917Z,3.05
2023-02-15T21:04:35.659Z,6.13
2023-02-15T21:09:34.588Z,6.96
2023-02-15T21:14:34.621Z,3.39
2023-02-15T21:19:33.344Z,2.13
2023-02-15T21:24:32.267Z,1.91
2023-02-15T21:29:31.536Z,1.76
2023-02-15T21:34:30.288Z,1.63
2023-02-15T21:39:32.726Z,1.72
2023-02-15T21:44:50.844Z,1.68
2023-02-15T21:49:49.958Z,1.72
2023-02-15T21:54:49.209Z,1.61
2023-02-15T21:59:48.187Z,1.47
2023-02-15T22:04:46.921Z,1.34
2023-02-15T22:09:45.734Z,1.65
2023-02-15T22:14:49.741Z,1.48
2023-02-15T22:19:50.065Z,1.64
2023-02-15T22:24:48.940Z,1.79
2023-02-15T22:29:48.854Z,1.62
2023-02-15T22:34:48.013Z,1.64
2023-02-15T22:39:46.846Z,1.77
2023-02-15T22:44:46.487Z,1.61
2023-02-15T22:49:45.398Z,1.80
2023-02-15T22:54:44.737Z,1.67
2023-02-15T22:59:43.675Z,1.64
2023-02-15T23:04:43.008Z,2.09
2023-02-15T23:09:42.378Z,1.73
2023-02-15T23:14:41.191Z,1.91
2023-02-15T23:19:40.192Z,1.71
2023-02-15T23:24:39.839Z,2.09
2023-02-15T23:29:38.783Z,1.85
2023-02-15T23:34:37.616Z,2.23
2023-02-15T23:39:55.035Z,2.06
2023-02-15T23:44:53.934Z,2.10
2023-02-15T23:49:52.810Z,1.82
2023-02-15T23:54:51.790Z,1.86
2023-02-15T23:59:50.685Z,1.67
